ポートルイス の空港の天気 - METARとTAF

サー・シウサガル・ラングラーム国際空港 ( FIMP / MRU ) - モーリシャス ポートルイス
飛行場実況気象(Metar)
観測時間05/29 19:00 MUT (05/29 15:00 UTC)
風向・風速東 5m/s
視程10km以上
天気現象
全天の4割程度の雲 雲底高度 520m
気温24℃
湿度78%
気圧1019hPa
METARFIMP 291500Z 08009KT 9999 SCT017 24/20 Q1019
過去の天気等 Google飛行場航空写真 Wunderground天気予報

過去48時間のMETAR

飛行場予報(TAF)
発表時間: 5/29 15:30 MUT (5/29 11:30 UTC)
予報対象時間: 29日16時 MUT ~ 30日22時 MUT
風向・風速東 5m/s
視程10km以上
全天の4割程度の雲 雲底高度 520m
TAF FIMP 291130Z 2912/3018 09010KT 9999 SCT017